KCDR/CDR METAR and TAF weather

Enter ICAO airport designator
Station Type Date Time Source
KCDR METAR 2021/07/26 16:53 UTC NOAA

KCDR 261653Z AUTO 28006KT 10SM CLR 33/14 A2997 RMK AO2 SLP113 T03280144


Station Type Date Time Source
KCDR Decoded METAR 2021/07/26 16:53 UTC NOAA

CHADRON MUNICIPAL AIRPORT, NE, United States (KCDR) 42-50N 103-06W 1010M
Jul 26, 2021 - 12:53 PM EDT / 2021.07.26 1653 UTC
Wind: from the W (280 degrees) at 7 MPH (6 KT):0
Visibility: 10 mile(s):0
Sky conditions: clear
Temperature: 91.0 F (32.8 C)
Dew Point: 57.9 F (14.4 C)
Relative Humidity: 32%
Pressure (altimeter): 29.97 in. Hg (1014 hPa)
ob: KCDR 261653Z AUTO 28006KT 10SM CLR 33/14 A2997 RMK AO2 SLP113 T03280144
cycle: 17

Station Type Date Time Source
KCDR TAF 2021/07/26 18:22 UTC NOAA

TAF KCDR 261720Z 2618/2718 21010KT P6SM SKC
FM270100 18010KT P6SM SKC
FM270600 22006KT P6SM SKC
FM271700 19012G22KT P6SM SKC

Example: see airport list